createdAt,value
2023-04-15T00:01:19.266Z,47.10
2023-04-15T00:03:47.883Z,47.07
2023-04-15T00:06:15.469Z,47.13
2023-04-15T00:08:42.799Z,46.88
2023-04-15T00:11:10.113Z,47.23
2023-04-15T00:13:37.812Z,47.18
2023-04-15T00:16:06.495Z,47.04
2023-04-15T00:18:34.202Z,47.10
2023-04-15T00:21:01.733Z,47.10
2023-04-15T00:23:29.041Z,47.09
2023-04-15T00:25:56.633Z,47.07
2023-04-15T00:28:24.170Z,47.11
2023-04-15T00:30:51.728Z,47.14
2023-04-15T00:33:19.150Z,47.05
2023-04-15T00:35:47.520Z,47.11
2023-04-15T00:38:14.727Z,47.03
2023-04-15T00:40:43.643Z,47.07
2023-04-15T00:43:10.940Z,47.19
2023-04-15T00:45:38.632Z,47.11
2023-04-15T00:48:06.196Z,46.93
2023-04-15T00:50:33.675Z,47.11
2023-04-15T00:53:01.179Z,46.79
2023-04-15T00:55:28.468Z,47.00
2023-04-15T00:57:57.657Z,46.77
2023-04-15T01:00:25.093Z,47.08
2023-04-15T01:02:53.165Z,47.09
2023-04-15T01:05:20.633Z,47.05
2023-04-15T01:07:48.894Z,47.01
2023-04-15T01:10:16.319Z,47.01
2023-04-15T01:12:44.668Z,46.96
2023-04-15T01:15:12.131Z,47.04
2023-04-15T01:17:40.102Z,47.04
2023-04-15T01:20:10.572Z,46.99
2023-04-15T01:22:39.497Z,47.00
2023-04-15T01:25:34.867Z,47.09
2023-04-15T01:28:02.314Z,47.08
2023-04-15T01:30:33.937Z,47.15
2023-04-15T01:33:01.344Z,47.07
2023-04-15T01:35:28.752Z,47.02
2023-04-15T01:38:02.661Z,47.05
2023-04-15T01:40:30.052Z,47.07
2023-04-15T01:42:59.186Z,47.06
2023-04-15T01:45:26.566Z,47.11
2023-04-15T01:47:54.339Z,47.17
2023-04-15T01:50:21.832Z,47.18
2023-04-15T01:52:49.053Z,47.00
2023-04-15T01:55:16.687Z,47.08
2023-04-15T01:57:46.547Z,47.03
2023-04-15T02:00:14.152Z,47.15
2023-04-15T02:02:43.075Z,47.18
2023-04-15T02:05:10.979Z,47.09
2023-04-15T02:07:38.377Z,47.04
2023-04-15T02:10:05.853Z,47.11
2023-04-15T02:12:36.365Z,47.07
2023-04-15T02:15:04.221Z,47.18
2023-04-15T02:17:35.182Z,47.08
2023-04-15T02:20:03.081Z,46.83
2023-04-15T02:22:32.714Z,46.96
2023-04-15T02:25:00.001Z,46.98
2023-04-15T02:27:28.535Z,46.87
2023-04-15T02:29:55.955Z,47.05
2023-04-15T02:32:24.515Z,46.95
2023-04-15T02:34:51.984Z,47.06
2023-04-15T02:37:20.466Z,46.86
2023-04-15T02:39:47.916Z,46.98
2023-04-15T02:42:16.297Z,47.00
2023-04-15T02:44:44.402Z,46.87
2023-04-15T02:47:11.981Z,46.81
2023-04-15T02:49:40.256Z,47.02
2023-04-15T02:52:07.836Z,47.00
2023-04-15T02:54:35.419Z,46.97
2023-04-15T02:57:02.982Z,46.88
2023-04-15T02:59:30.439Z,47.24
2023-04-15T03:02:01.139Z,46.72
2023-04-15T03:04:30.185Z,47.15
2023-04-15T03:06:57.631Z,46.86
2023-04-15T03:09:25.835Z,46.99
2023-04-15T03:11:54.876Z,47.22
2023-04-15T03:14:22.950Z,47.02
2023-04-15T03:16:51.942Z,47.06
2023-04-15T03:19:19.552Z,47.05
2023-04-15T03:21:46.892Z,47.13
2023-04-15T03:24:14.720Z,47.22
2023-04-15T03:26:42.034Z,47.24
2023-04-15T03:29:13.039Z,47.11
2023-04-15T03:31:41.739Z,47.16
2023-04-15T03:34:09.194Z,47.11
2023-04-15T03:36:37.239Z,47.27
2023-04-15T03:39:04.538Z,47.22
2023-04-15T03:41:32.897Z,47.04
2023-04-15T03:44:00.647Z,47.23
2023-04-15T03:46:28.119Z,47.22
2023-04-15T03:48:55.454Z,47.24
2023-04-15T03:51:22.740Z,47.26
2023-04-15T03:53:50.033Z,47.12
2023-04-15T03:56:17.408Z,47.15
2023-04-15T03:58:44.896Z,47.15
2023-04-15T04:01:13.211Z,47.15
2023-04-15T04:03:40.906Z,47.19
2023-04-15T04:06:08.677Z,47.12
2023-04-15T04:08:36.236Z,47.13
2023-04-15T04:11:03.910Z,47.13
2023-04-15T04:13:31.233Z,47.11
2023-04-15T04:15:58.540Z,47.00
2023-04-15T04:18:25.814Z,47.11
2023-04-15T04:20:53.200Z,47.15
2023-04-15T04:23:20.704Z,47.14
2023-04-15T04:25:47.999Z,47.34
2023-04-15T04:28:15.335Z,47.23
2023-04-15T04:30:42.722Z,47.31
2023-04-15T04:33:10.005Z,47.26
2023-04-15T04:35:37.835Z,47.29
2023-04-15T04:38:05.109Z,47.29
2023-04-15T04:40:32.375Z,47.36
2023-04-15T04:43:00.446Z,47.40
2023-04-15T04:45:27.903Z,47.19
2023-04-15T04:47:55.536Z,47.20
2023-04-15T04:50:22.841Z,47.21
2023-04-15T04:52:50.180Z,47.29
2023-04-15T04:55:17.460Z,47.07
2023-04-15T04:57:44.760Z,47.10
2023-04-15T05:00:12.620Z,47.10
2023-04-15T05:02:41.838Z,47.12
2023-04-15T05:05:10.026Z,47.21
2023-04-15T05:07:38.273Z,47.24
2023-04-15T05:10:06.654Z,47.20
2023-04-15T05:12:33.941Z,47.16
2023-04-15T05:15:01.390Z,47.34
2023-04-15T05:17:28.974Z,47.44
2023-04-15T05:19:56.306Z,47.30
2023-04-15T05:22:23.884Z,47.49
2023-04-15T05:24:51.276Z,47.36
2023-04-15T05:27:19.232Z,47.45
2023-04-15T05:29:46.482Z,47.51
2023-04-15T05:32:13.851Z,47.38
2023-04-15T05:34:41.982Z,47.41
2023-04-15T05:37:09.196Z,47.33
2023-04-15T05:39:36.450Z,47.24
2023-04-15T05:42:03.869Z,47.29
2023-04-15T05:44:31.140Z,47.21
2023-04-15T05:46:58.446Z,47.12
2023-04-15T05:49:25.712Z,47.24
2023-04-15T05:51:53.011Z,47.48
2023-04-15T05:54:20.448Z,47.24
2023-04-15T05:56:47.714Z,47.28
2023-04-15T05:59:15.018Z,47.29
2023-04-15T06:01:42.279Z,47.26
2023-04-15T06:04:10.005Z,47.22
2023-04-15T06:06:38.353Z,47.47
2023-04-15T06:09:05.655Z,47.28
2023-04-15T06:11:33.093Z,47.29
2023-04-15T06:14:00.350Z,47.34
2023-04-15T06:16:27.854Z,47.26
2023-04-15T06:18:55.201Z,47.25
2023-04-15T06:21:22.490Z,47.03
2023-04-15T06:23:49.747Z,46.66
2023-04-15T06:26:16.970Z,46.34
2023-04-15T06:28:45.401Z,46.01
2023-04-15T06:31:12.732Z,46.20
2023-04-15T06:33:40.095Z,45.86
2023-04-15T06:36:07.575Z,46.08
2023-04-15T06:38:34.955Z,46.06
2023-04-15T06:41:03.458Z,46.13
2023-04-15T06:43:30.872Z,46.00
2023-04-15T06:45:58.260Z,45.71
2023-04-15T06:48:25.719Z,45.90
2023-04-15T06:50:53.094Z,45.51
2023-04-15T06:53:20.327Z,45.56
2023-04-15T06:55:47.616Z,45.32
2023-04-15T06:58:14.935Z,45.60
2023-04-15T07:00:42.427Z,45.30
2023-04-15T07:03:11.316Z,46.16
2023-04-15T07:05:39.026Z,47.31
2023-04-15T07:08:06.863Z,47.27
2023-04-15T07:10:34.988Z,46.46
2023-04-15T07:13:02.768Z,45.83
2023-04-15T07:15:30.254Z,46.01
2023-04-15T07:17:57.580Z,45.99
2023-04-15T07:20:25.009Z,46.04
2023-04-15T07:22:52.318Z,46.21
2023-04-15T07:25:19.774Z,46.27
2023-04-15T07:27:47.447Z,46.34
2023-04-15T07:30:15.069Z,45.94
2023-04-15T07:32:43.001Z,46.14
2023-04-15T07:35:10.719Z,46.21
2023-04-15T07:37:38.015Z,46.22
2023-04-15T07:40:07.235Z,46.21
2023-04-15T07:42:35.056Z,46.33
2023-04-15T07:45:02.404Z,46.12
2023-04-15T07:47:29.679Z,46.29
2023-04-15T07:49:57.547Z,46.17
2023-04-15T07:52:24.765Z,46.13
2023-04-15T07:54:51.966Z,46.88
2023-04-15T07:57:19.192Z,46.83
2023-04-15T07:59:46.422Z,46.80
2023-04-15T08:02:13.766Z,46.44
2023-04-15T08:04:41.340Z,46.63
2023-04-15T08:07:08.715Z,46.48
2023-04-15T08:09:36.094Z,46.20
2023-04-15T08:12:03.967Z,45.96
2023-04-15T08:14:31.241Z,46.05
2023-04-15T08:16:58.471Z,45.91
2023-04-15T08:19:25.818Z,45.72
2023-04-15T08:21:53.016Z,46.51
2023-04-15T08:24:20.282Z,46.14
2023-04-15T08:26:47.869Z,46.17
2023-04-15T08:29:15.259Z,46.44
2023-04-15T08:31:42.596Z,46.34
2023-04-15T08:34:10.393Z,46.74
2023-04-15T08:36:37.763Z,46.21
2023-04-15T08:39:05.281Z,46.14
2023-04-15T08:41:47.897Z,46.60
2023-04-15T08:44:15.466Z,46.71
2023-04-15T08:46:43.074Z,46.90
2023-04-15T08:49:13.303Z,46.38
2023-04-15T08:51:41.608Z,46.20
2023-04-15T08:54:09.572Z,45.27
2023-04-15T08:56:37.502Z,46.67
2023-04-15T08:59:05.490Z,46.67
2023-04-15T09:01:33.335Z,46.72
2023-04-15T09:04:03.431Z,46.41
2023-04-15T09:06:31.069Z,46.72
2023-04-15T09:08:58.292Z,46.57
2023-04-15T09:11:25.761Z,45.50
2023-04-15T09:13:53.167Z,46.21
2023-04-15T09:16:20.509Z,45.71
2023-04-15T09:18:47.878Z,45.93
2023-04-15T09:21:17.443Z,45.47
2023-04-15T09:23:57.592Z,44.53
2023-04-15T09:26:32.353Z,45.28
2023-04-15T09:29:10.924Z,45.24
2023-04-15T09:31:38.342Z,45.83
2023-04-15T09:34:06.945Z,45.71
2023-04-15T09:36:54.894Z,45.97
2023-04-15T09:39:22.563Z,45.60
2023-04-15T09:42:08.495Z,45.62
2023-04-15T09:44:36.000Z,44.89
2023-04-15T09:47:03.280Z,43.63
2023-04-15T09:49:30.615Z,44.02
2023-04-15T09:52:05.474Z,45.28
2023-04-15T09:54:35.083Z,46.09
2023-04-15T09:57:10.179Z,45.99
2023-04-15T09:59:37.955Z,45.78
2023-04-15T10:02:08.986Z,45.95
2023-04-15T10:04:39.867Z,45.90
2023-04-15T10:07:09.587Z,45.91
2023-04-15T10:09:39.115Z,46.06
2023-04-15T10:12:06.578Z,45.78
2023-04-15T10:14:38.646Z,46.21
2023-04-15T10:17:08.347Z,46.07
2023-04-15T10:19:37.938Z,45.98
2023-04-15T10:22:06.548Z,45.95
2023-04-15T10:24:34.327Z,45.38
2023-04-15T10:27:04.390Z,45.95
2023-04-15T10:29:31.833Z,45.68
2023-04-15T10:32:03.355Z,45.46
2023-04-15T10:34:31.925Z,45.48
2023-04-15T10:37:03.587Z,45.59
2023-04-15T10:39:34.233Z,46.28
2023-04-15T10:42:10.451Z,46.27
2023-04-15T10:44:39.047Z,45.56
2023-04-15T10:47:21.631Z,45.72
2023-04-15T10:49:52.505Z,44.88
2023-04-15T10:52:25.124Z,45.31
2023-04-15T10:55:22.630Z,45.23
2023-04-15T10:58:01.071Z,44.74
2023-04-15T11:00:33.000Z,44.88
2023-04-15T11:03:08.101Z,46.05
2023-04-15T11:05:43.556Z,46.33
2023-04-15T11:08:11.856Z,46.24
2023-04-15T11:10:39.052Z,46.31
2023-04-15T11:13:17.336Z,46.23
2023-04-15T11:15:46.468Z,45.54
2023-04-15T11:18:22.321Z,46.20
2023-04-15T11:20:52.190Z,47.44
2023-04-15T11:23:27.773Z,47.98
2023-04-15T11:25:57.679Z,47.44
2023-04-15T11:28:30.458Z,48.01
2023-04-15T11:30:58.860Z,48.09
2023-04-15T11:33:27.087Z,47.95
2023-04-15T11:35:55.239Z,48.83
2023-04-15T11:38:22.909Z,47.75
2023-04-15T11:40:51.673Z,48.56
2023-04-15T11:43:22.910Z,48.36
2023-04-15T11:46:01.353Z,48.13
2023-04-15T11:48:36.053Z,48.48
2023-04-15T11:51:06.049Z,48.37
2023-04-15T11:53:38.416Z,48.23
2023-04-15T11:56:06.308Z,47.91
2023-04-15T11:58:37.922Z,48.45
2023-04-15T12:01:06.925Z,48.75
2023-04-15T12:03:43.774Z,48.88
2023-04-15T12:06:24.604Z,48.97
2023-04-15T12:09:07.156Z,48.93
2023-04-15T12:11:42.080Z,48.79
2023-04-15T12:14:29.878Z,48.60
2023-04-15T12:16:58.843Z,48.75
2023-04-15T12:19:40.626Z,48.77
2023-04-15T12:22:13.281Z,48.94
2023-04-15T12:24:42.398Z,48.88
2023-04-15T12:27:13.542Z,48.74
2023-04-15T12:29:43.160Z,48.98
2023-04-15T12:32:15.264Z,49.04
2023-04-15T12:34:49.744Z,49.21
2023-04-15T12:37:17.829Z,49.13
2023-04-15T12:39:48.792Z,49.24
2023-04-15T12:42:17.547Z,48.98
2023-04-15T12:44:45.238Z,48.96
2023-04-15T12:47:12.861Z,48.89
2023-04-15T12:49:40.833Z,48.79
2023-04-15T12:52:08.143Z,48.88
2023-04-15T12:54:36.358Z,48.62
2023-04-15T12:57:06.914Z,48.75
2023-04-15T12:59:35.721Z,48.67
2023-04-15T13:02:04.099Z,48.51
2023-04-15T13:04:32.023Z,48.32
2023-04-15T13:06:59.549Z,48.31
2023-04-15T13:09:27.152Z,48.31
2023-04-15T13:11:54.821Z,48.24
2023-04-15T13:14:22.275Z,48.21
2023-04-15T13:16:49.491Z,48.28
2023-04-15T13:19:16.963Z,48.38
2023-04-15T13:21:44.285Z,48.32
2023-04-15T13:24:11.674Z,48.13
2023-04-15T13:26:38.947Z,48.26
2023-04-15T13:29:06.819Z,47.98
2023-04-15T13:31:34.198Z,48.12
2023-04-15T13:34:01.524Z,48.04
2023-04-15T13:36:29.097Z,47.92
2023-04-15T13:38:57.007Z,47.84
2023-04-15T13:41:24.245Z,48.03
2023-04-15T13:43:51.663Z,48.11
2023-04-15T13:46:19.137Z,47.83
2023-04-15T13:48:46.463Z,47.60
2023-04-15T13:51:13.698Z,48.03
2023-04-15T13:53:41.006Z,47.77
2023-04-15T13:56:08.754Z,47.68
2023-04-15T13:58:37.019Z,47.93
2023-04-15T14:01:07.015Z,47.87
2023-04-15T14:03:36.415Z,47.78
2023-04-15T14:06:05.135Z,47.70
2023-04-15T14:08:32.859Z,47.88
2023-04-15T14:11:00.586Z,47.67
2023-04-15T14:13:28.093Z,47.80
2023-04-15T14:15:57.461Z,47.68
2023-04-15T14:18:25.068Z,47.66
2023-04-15T14:20:52.523Z,47.71
2023-04-15T14:23:19.954Z,47.68
2023-04-15T14:25:48.341Z,47.54
2023-04-15T14:28:15.867Z,47.61
2023-04-15T14:30:43.594Z,47.48
2023-04-15T14:33:10.967Z,47.52
2023-04-15T14:35:39.151Z,47.46
2023-04-15T14:38:10.585Z,47.52
2023-04-15T14:40:38.380Z,47.75
2023-04-15T14:43:05.738Z,47.41
2023-04-15T14:45:33.177Z,47.54
2023-04-15T14:48:00.969Z,47.41
2023-04-15T14:50:28.343Z,47.57
2023-04-15T14:52:55.531Z,47.48
2023-04-15T14:55:22.878Z,47.68
2023-04-15T14:57:50.163Z,47.56
2023-04-15T15:00:17.614Z,47.50
2023-04-15T15:02:45.291Z,47.44
2023-04-15T15:05:13.018Z,47.49
2023-04-15T15:07:43.140Z,47.42
2023-04-15T15:10:10.643Z,47.61
2023-04-15T15:12:38.015Z,47.54
2023-04-15T15:15:12.689Z,47.60
2023-04-15T15:17:47.464Z,47.51
2023-04-15T15:20:16.632Z,47.42
2023-04-15T15:22:44.038Z,47.58
2023-04-15T15:25:11.324Z,47.61
2023-04-15T15:27:38.672Z,47.41
2023-04-15T15:30:06.952Z,47.49
2023-04-15T15:32:34.684Z,47.51
2023-04-15T15:35:03.345Z,47.34
2023-04-15T15:37:31.436Z,47.57
2023-04-15T15:39:58.847Z,47.50
2023-04-15T15:42:26.526Z,47.49
2023-04-15T15:44:53.785Z,47.50
2023-04-15T15:47:22.526Z,47.46
2023-04-15T15:49:49.961Z,47.65
2023-04-15T15:52:17.209Z,47.56
2023-04-15T15:54:44.599Z,47.61
2023-04-15T15:57:12.019Z,47.52
2023-04-15T15:59:43.737Z,47.61
2023-04-15T16:02:12.481Z,47.59
2023-04-15T16:04:40.758Z,47.70
2023-04-15T16:07:08.077Z,47.72
2023-04-15T16:09:35.490Z,47.68
2023-04-15T16:12:04.048Z,47.64
2023-04-15T16:14:31.403Z,47.59
2023-04-15T16:16:58.631Z,47.50
2023-04-15T16:19:25.953Z,47.67
2023-04-15T16:21:53.811Z,47.73
2023-04-15T16:24:21.215Z,47.70
2023-04-15T16:26:48.517Z,47.73
2023-04-15T16:29:16.139Z,47.64
2023-04-15T16:31:43.600Z,47.64
2023-04-15T16:34:10.843Z,47.70
2023-04-15T16:36:40.472Z,47.68
2023-04-15T16:39:07.896Z,47.59
2023-04-15T16:41:35.324Z,47.73
2023-04-15T16:44:03.394Z,47.79
2023-04-15T16:46:31.687Z,47.59
2023-04-15T16:48:59.094Z,47.75
2023-04-15T16:51:27.650Z,47.66
2023-04-15T16:53:54.932Z,47.76
2023-04-15T16:56:22.242Z,47.78
2023-04-15T16:58:50.771Z,47.78
2023-04-15T17:01:18.343Z,47.75
2023-04-15T17:03:48.508Z,47.75
2023-04-15T17:06:16.370Z,47.85
2023-04-15T17:08:44.499Z,48.13
2023-04-15T17:11:12.327Z,47.76
2023-04-15T17:13:39.756Z,47.87
2023-04-15T17:16:07.525Z,47.87
2023-04-15T17:18:34.854Z,47.87
2023-04-15T17:21:02.264Z,47.84
2023-04-15T17:23:29.802Z,47.91
2023-04-15T17:25:57.082Z,48.08
2023-04-15T17:28:24.334Z,48.05
2023-04-15T17:30:51.611Z,47.83
2023-04-15T17:33:52.948Z,47.79
2023-04-15T17:36:06.912Z,47.79
2023-04-15T17:38:34.191Z,47.78
2023-04-15T17:41:01.475Z,48.05
2023-04-15T17:43:28.823Z,47.95
2023-04-15T17:45:58.158Z,47.89
2023-04-15T17:48:26.381Z,47.89
2023-04-15T17:50:53.713Z,47.78
2023-04-15T17:53:20.957Z,47.90
2023-04-15T17:55:48.267Z,47.91
2023-04-15T17:58:15.579Z,48.10
2023-04-15T18:00:42.851Z,47.87
2023-04-15T18:03:10.544Z,47.97
2023-04-15T18:05:39.156Z,47.87
2023-04-15T18:08:07.761Z,47.73
2023-04-15T18:10:35.389Z,48.04
2023-04-15T18:13:03.503Z,47.81
2023-04-15T18:15:31.638Z,48.00
2023-04-15T18:18:00.251Z,48.03
2023-04-15T18:20:27.925Z,47.97
2023-04-15T18:22:55.857Z,47.93
2023-04-15T18:25:23.179Z,47.96
2023-04-15T18:27:50.906Z,47.69
2023-04-15T18:30:18.246Z,47.93
2023-04-15T18:32:45.560Z,47.94
2023-04-15T18:35:13.004Z,47.77
2023-04-15T18:37:40.351Z,47.84
2023-04-15T18:40:08.172Z,47.91
2023-04-15T18:42:35.504Z,47.81
2023-04-15T18:45:02.813Z,48.00
2023-04-15T18:47:30.443Z,47.91
2023-04-15T18:49:58.444Z,47.79
2023-04-15T18:52:25.814Z,48.11
2023-04-15T18:54:53.221Z,47.87
2023-04-15T18:57:24.340Z,47.81
2023-04-15T18:59:59.087Z,47.99
2023-04-15T19:02:26.638Z,48.00
2023-04-15T19:04:53.975Z,47.73
2023-04-15T19:07:21.484Z,47.88
2023-04-15T19:09:48.858Z,47.89
2023-04-15T19:12:16.211Z,47.89
2023-04-15T19:14:43.598Z,47.97
2023-04-15T19:17:10.947Z,47.90
2023-04-15T19:19:38.870Z,48.11
2023-04-15T19:22:06.782Z,48.13
2023-04-15T19:24:34.651Z,48.01
2023-04-15T19:27:02.269Z,48.14
2023-04-15T19:29:29.693Z,48.21
2023-04-15T19:31:56.984Z,48.01
2023-04-15T19:34:25.110Z,48.23
2023-04-15T19:36:52.599Z,48.23
2023-04-15T19:39:20.042Z,48.47
2023-04-15T19:41:47.374Z,48.99
2023-04-15T19:44:15.116Z,49.54
2023-04-15T19:46:44.795Z,50.59
2023-04-15T19:49:12.406Z,50.28
2023-04-15T19:51:41.605Z,50.24
2023-04-15T19:54:09.367Z,50.42
2023-04-15T19:56:36.737Z,50.21
2023-04-15T19:59:04.170Z,50.44
2023-04-15T20:01:32.005Z,50.34
2023-04-15T20:03:59.814Z,50.80
2023-04-15T20:06:27.802Z,50.43
2023-04-15T20:08:55.136Z,50.43
2023-04-15T20:11:25.272Z,50.78
2023-04-15T20:14:12.894Z,51.22
2023-04-15T20:16:40.565Z,51.21
2023-04-15T20:19:09.292Z,51.08
2023-04-15T20:21:36.763Z,50.93
2023-04-15T20:24:04.496Z,50.99
2023-04-15T20:26:32.032Z,51.43
2023-04-15T20:29:00.166Z,51.12
2023-04-15T20:31:27.727Z,51.12
2023-04-15T20:33:55.024Z,50.96
2023-04-15T20:36:22.476Z,51.04
2023-04-15T20:38:49.834Z,51.02
2023-04-15T20:41:17.061Z,51.03
2023-04-15T20:43:44.306Z,50.84
2023-04-15T20:46:20.147Z,50.82
2023-04-15T20:48:48.880Z,50.94
2023-04-15T20:51:16.646Z,50.81
2023-04-15T20:53:44.029Z,51.01
2023-04-15T20:56:11.460Z,50.93
2023-04-15T20:58:38.842Z,51.00
2023-04-15T21:01:09.186Z,50.85
2023-04-15T21:03:37.025Z,50.90
2023-04-15T21:06:04.419Z,50.99
2023-04-15T21:08:31.836Z,50.95
2023-04-15T21:10:59.103Z,50.81
2023-04-15T21:13:26.557Z,50.80
2023-04-15T21:15:54.464Z,50.88
2023-04-15T21:18:22.532Z,50.82
2023-04-15T21:21:00.556Z,50.86
2023-04-15T21:23:29.730Z,50.89
2023-04-15T21:25:57.554Z,50.89
2023-04-15T21:28:27.910Z,50.81
2023-04-15T21:30:56.274Z,50.95
2023-04-15T21:33:24.408Z,50.76
2023-04-15T21:35:52.857Z,50.76
2023-04-15T21:38:22.694Z,50.92
2023-04-15T21:40:51.301Z,50.85
2023-04-15T21:43:18.848Z,50.84
2023-04-15T21:46:00.436Z,50.83
2023-04-15T21:48:33.523Z,50.92
2023-04-15T21:51:01.737Z,51.13
2023-04-15T21:53:29.066Z,51.24
2023-04-15T21:55:56.326Z,51.05
2023-04-15T21:58:23.645Z,51.23
2023-04-15T22:00:52.570Z,51.58
2023-04-15T22:03:20.068Z,51.51
2023-04-15T22:05:47.556Z,50.94
2023-04-15T22:08:14.905Z,50.65
2023-04-15T22:10:42.219Z,50.49
2023-04-15T22:13:11.118Z,50.44
2023-04-15T22:15:38.792Z,50.36
2023-04-15T22:18:06.560Z,50.37
2023-04-15T22:20:34.069Z,50.47
2023-04-15T22:23:03.901Z,50.35
2023-04-15T22:25:31.686Z,50.34
2023-04-15T22:27:59.080Z,50.23
2023-04-15T22:30:26.530Z,50.10
2023-04-15T22:32:53.903Z,50.02
2023-04-15T22:35:21.374Z,50.14
2023-04-15T22:37:48.636Z,50.77
2023-04-15T22:40:16.035Z,51.13
2023-04-15T22:42:43.363Z,50.60
2023-04-15T22:45:10.951Z,50.47
2023-04-15T22:47:38.352Z,50.65
2023-04-15T22:50:06.680Z,50.24
2023-04-15T22:52:34.040Z,50.29
2023-04-15T22:55:01.608Z,50.31
2023-04-15T22:57:29.080Z,50.40
2023-04-15T22:59:56.699Z,50.48
2023-04-15T23:02:24.237Z,50.33
2023-04-15T23:04:51.905Z,50.41
2023-04-15T23:07:19.259Z,50.32
2023-04-15T23:09:46.510Z,50.19
2023-04-15T23:12:13.973Z,50.22
2023-04-15T23:14:41.333Z,50.33
2023-04-15T23:17:08.695Z,50.23
2023-04-15T23:19:36.194Z,50.38
2023-04-15T23:22:03.404Z,50.19
2023-04-15T23:24:30.845Z,50.29
2023-04-15T23:26:58.111Z,50.18
2023-04-15T23:29:25.372Z,50.20
2023-04-15T23:31:52.783Z,50.19
2023-04-15T23:34:20.088Z,50.07
2023-04-15T23:36:47.683Z,50.22
2023-04-15T23:39:14.863Z,50.15
2023-04-15T23:41:42.130Z,50.23
2023-04-15T23:44:09.818Z,50.06
2023-04-15T23:46:37.107Z,50.24
2023-04-15T23:49:04.376Z,49.97
2023-04-15T23:51:31.633Z,50.18
2023-04-15T23:53:58.994Z,50.02
2023-04-15T23:56:26.362Z,50.14
2023-04-15T23:58:53.643Z,50.16
